sensor_id;sensor_type;location;lat;lon;timestamp;pressure;altitude;pressure_sealevel;temperature;humidity
28004;BME280;15330;51.234;6.754;2022-11-04T00:01:18;99791.25;;;10.73;87.65
28004;BME280;15330;51.234;6.754;2022-11-04T00:03:43;99762.16;;;10.63;88.13
28004;BME280;15330;51.234;6.754;2022-11-04T00:06:08;99785.59;;;10.82;87.60
28004;BME280;15330;51.234;6.754;2022-11-04T00:08:34;99791.41;;;10.86;87.58
28004;BME280;15330;51.234;6.754;2022-11-04T00:11:00;99782.56;;;10.85;87.28
28004;BME280;15330;51.234;6.754;2022-11-04T00:13:44;99790.72;;;10.77;87.51
28004;BME280;15330;51.234;6.754;2022-11-04T00:16:10;99794.31;;;10.91;87.16
28004;BME280;15330;51.234;6.754;2022-11-04T00:18:53;99786.81;;;10.80;86.91
28004;BME280;15330;51.234;6.754;2022-11-04T00:21:19;99798.97;;;10.82;87.03
28004;BME280;15330;51.234;6.754;2022-11-04T00:24:03;99812.81;;;10.86;86.63
28004;BME280;15330;51.234;6.754;2022-11-04T00:26:48;99820.00;;;10.85;86.83
28004;BME280;15330;51.234;6.754;2022-11-04T00:29:32;99823.44;;;10.79;87.41
28004;BME280;15330;51.234;6.754;2022-11-04T00:31:57;99820.56;;;10.81;86.96
28004;BME280;15330;51.234;6.754;2022-11-04T00:34:41;99839.69;;;10.78;87.63
28004;BME280;15330;51.234;6.754;2022-11-04T00:37:07;99836.38;;;10.76;87.79
28004;BME280;15330;51.234;6.754;2022-11-04T00:39:32;99833.56;;;10.84;87.35
28004;BME280;15330;51.234;6.754;2022-11-04T00:41:57;99831.66;;;10.78;87.51
28004;BME280;15330;51.234;6.754;2022-11-04T00:44:23;99840.25;;;10.73;87.46
28004;BME280;15330;51.234;6.754;2022-11-04T00:46:48;99837.38;;;10.75;87.84
28004;BME280;15330;51.234;6.754;2022-11-04T00:49:14;99839.88;;;10.76;88.28
28004;BME280;15330;51.234;6.754;2022-11-04T00:51:39;99845.03;;;10.78;88.42
28004;BME280;15330;51.234;6.754;2022-11-04T00:54:05;99841.34;;;10.79;88.50
28004;BME280;15330;51.234;6.754;2022-11-04T00:56:30;99851.59;;;10.75;89.08
28004;BME280;15330;51.234;6.754;2022-11-04T00:58:58;99856.66;;;10.70;90.00
28004;BME280;15330;51.234;6.754;2022-11-04T01:01:24;99849.94;;;10.59;90.82
28004;BME280;15330;51.234;6.754;2022-11-04T01:03:51;99840.91;;;10.60;91.31
28004;BME280;15330;51.234;6.754;2022-11-04T01:06:17;99852.00;;;10.57;91.42
28004;BME280;15330;51.234;6.754;2022-11-04T01:08:43;99857.47;;;10.71;91.39
28004;BME280;15330;51.234;6.754;2022-11-04T01:11:10;99860.44;;;10.61;92.08
28004;BME280;15330;51.234;6.754;2022-11-04T01:13:36;99861.47;;;10.60;91.43
28004;BME280;15330;51.234;6.754;2022-11-04T01:16:04;99870.78;;;10.64;91.15
28004;BME280;15330;51.234;6.754;2022-11-04T01:18:30;99872.63;;;10.63;91.51
28004;BME280;15330;51.234;6.754;2022-11-04T01:21:03;99880.72;;;10.70;91.56
28004;BME280;15330;51.234;6.754;2022-11-04T01:23:29;99890.97;;;10.66;91.27
28004;BME280;15330;51.234;6.754;2022-11-04T01:25:54;99884.44;;;10.69;91.15
28004;BME280;15330;51.234;6.754;2022-11-04T01:28:20;99889.31;;;10.65;90.88
28004;BME280;15330;51.234;6.754;2022-11-04T01:30:45;99889.97;;;10.68;90.96
28004;BME280;15330;51.234;6.754;2022-11-04T01:33:11;99889.50;;;10.64;91.01
28004;BME280;15330;51.234;6.754;2022-11-04T01:35:36;99889.69;;;10.62;90.21
28004;BME280;15330;51.234;6.754;2022-11-04T01:38:01;99896.63;;;10.57;90.72
28004;BME280;15330;51.234;6.754;2022-11-04T01:40:27;99900.66;;;10.53;90.54
28004;BME280;15330;51.234;6.754;2022-11-04T01:42:53;99901.41;;;10.61;90.55
28004;BME280;15330;51.234;6.754;2022-11-04T01:45:20;99900.03;;;10.51;90.14
28004;BME280;15330;51.234;6.754;2022-11-04T01:48:06;99893.31;;;10.55;90.12
28004;BME280;15330;51.234;6.754;2022-11-04T01:50:34;99904.09;;;10.47;90.51
28004;BME280;15330;51.234;6.754;2022-11-04T01:53:14;99894.59;;;10.44;90.33
28004;BME280;15330;51.234;6.754;2022-11-04T01:55:43;99899.75;;;10.46;89.71
28004;BME280;15330;51.234;6.754;2022-11-04T01:58:14;99904.16;;;10.39;90.18
28004;BME280;15330;51.234;6.754;2022-11-04T02:00:42;99911.38;;;10.38;89.44
28004;BME280;15330;51.234;6.754;2022-11-04T02:03:16;99913.00;;;10.39;89.70
28004;BME280;15330;51.234;6.754;2022-11-04T02:05:43;99920.41;;;10.37;89.44
28004;BME280;15330;51.234;6.754;2022-11-04T02:08:14;99918.00;;;10.27;90.05
28004;BME280;15330;51.234;6.754;2022-11-04T02:10:47;99925.28;;;10.34;90.08
28004;BME280;15330;51.234;6.754;2022-11-04T02:13:13;99921.78;;;10.33;90.05
28004;BME280;15330;51.234;6.754;2022-11-04T02:16:19;99929.16;;;10.31;90.36
28004;BME280;15330;51.234;6.754;2022-11-04T02:24:19;99917.72;;;10.22;90.45
28004;BME280;15330;51.234;6.754;2022-11-04T02:45:43;99913.22;;;10.00;89.73
28004;BME280;15330;51.234;6.754;2022-11-04T02:48:35;99919.56;;;9.99;90.10
28004;BME280;15330;51.234;6.754;2022-11-04T02:51:09;99914.63;;;9.96;90.02
28004;BME280;15330;51.234;6.754;2022-11-04T02:54:09;99910.16;;;9.88;89.78
28004;BME280;15330;51.234;6.754;2022-11-04T02:56:37;99910.72;;;9.99;89.23
28004;BME280;15330;51.234;6.754;2022-11-04T02:59:09;99907.97;;;9.92;89.83
28004;BME280;15330;51.234;6.754;2022-11-04T03:01:40;99908.63;;;9.94;89.78
28004;BME280;15330;51.234;6.754;2022-11-04T03:04:12;99902.97;;;9.89;89.52
28004;BME280;15330;51.234;6.754;2022-11-04T03:06:40;99900.47;;;9.87;89.12
28004;BME280;15330;51.234;6.754;2022-11-04T03:09:07;99904.06;;;9.80;89.59
28004;BME280;15330;51.234;6.754;2022-11-04T03:11:35;99909.88;;;9.83;89.56
28004;BME280;15330;51.234;6.754;2022-11-04T03:14:26;99913.25;;;9.77;89.29
28004;BME280;15330;51.234;6.754;2022-11-04T03:16:57;99904.88;;;9.80;89.89
28004;BME280;15330;51.234;6.754;2022-11-04T03:22:09;99900.31;;;9.66;90.06
28004;BME280;15330;51.234;6.754;2022-11-04T03:24:36;99907.47;;;9.74;89.98
28004;BME280;15330;51.234;6.754;2022-11-04T03:27:28;99904.13;;;9.72;89.89
28004;BME280;15330;51.234;6.754;2022-11-04T03:29:57;99908.75;;;9.78;89.86
28004;BME280;15330;51.234;6.754;2022-11-04T03:34:59;99909.38;;;9.65;90.09
28004;BME280;15330;51.234;6.754;2022-11-04T03:37:25;99896.28;;;9.70;89.69
28004;BME280;15330;51.234;6.754;2022-11-04T03:39:50;99906.50;;;9.67;89.61
28004;BME280;15330;51.234;6.754;2022-11-04T03:42:17;99917.72;;;9.62;89.98
28004;BME280;15330;51.234;6.754;2022-11-04T03:44:52;99913.91;;;9.56;90.55
28004;BME280;15330;51.234;6.754;2022-11-04T03:47:20;99921.72;;;9.43;90.63
28004;BME280;15330;51.234;6.754;2022-11-04T03:49:48;99921.66;;;9.51;90.23
28004;BME280;15330;51.234;6.754;2022-11-04T03:52:15;99925.22;;;9.44;90.74
28004;BME280;15330;51.234;6.754;2022-11-04T03:54:42;99920.66;;;9.52;90.38
28004;BME280;15330;51.234;6.754;2022-11-04T04:04:44;99931.00;;;9.47;90.18
28004;BME280;15330;51.234;6.754;2022-11-04T04:07:19;99923.72;;;9.41;90.29
28004;BME280;15330;51.234;6.754;2022-11-04T04:09:59;99919.56;;;9.39;90.69
28004;BME280;15330;51.234;6.754;2022-11-04T04:12:34;99916.00;;;9.46;90.33
28004;BME280;15330;51.234;6.754;2022-11-04T04:15:12;99919.22;;;9.42;90.30
28004;BME280;15330;51.234;6.754;2022-11-04T04:17:48;99927.69;;;9.45;90.26
28004;BME280;15330;51.234;6.754;2022-11-04T04:20:18;99924.19;;;9.45;90.17
28004;BME280;15330;51.234;6.754;2022-11-04T04:23:15;99929.47;;;9.30;90.64
28004;BME280;15330;51.234;6.754;2022-11-04T04:26:08;99932.63;;;9.34;90.73
28004;BME280;15330;51.234;6.754;2022-11-04T04:28:54;99932.16;;;9.53;89.84
28004;BME280;15330;51.234;6.754;2022-11-04T04:31:22;99933.69;;;9.47;89.60
28004;BME280;15330;51.234;6.754;2022-11-04T04:34:06;99937.00;;;9.49;89.47
28004;BME280;15330;51.234;6.754;2022-11-04T04:36:42;99935.69;;;9.45;89.71
28004;BME280;15330;51.234;6.754;2022-11-04T04:39:10;99940.34;;;9.51;89.30
28004;BME280;15330;51.234;6.754;2022-11-04T04:41:55;99938.50;;;9.52;88.81
28004;BME280;15330;51.234;6.754;2022-11-04T04:44:41;99929.75;;;9.58;88.81
28004;BME280;15330;51.234;6.754;2022-11-04T04:47:28;99936.19;;;9.49;88.46
28004;BME280;15330;51.234;6.754;2022-11-04T04:49:59;99933.41;;;9.65;88.31
28004;BME280;15330;51.234;6.754;2022-11-04T04:52:33;99943.88;;;9.67;87.82
28004;BME280;15330;51.234;6.754;2022-11-04T04:55:00;99931.66;;;9.49;88.22
28004;BME280;15330;51.234;6.754;2022-11-04T04:57:26;99945.97;;;9.56;88.03
28004;BME280;15330;51.234;6.754;2022-11-04T04:59:51;99953.13;;;9.56;88.16
28004;BME280;15330;51.234;6.754;2022-11-04T05:02:17;99950.13;;;9.59;87.86
28004;BME280;15330;51.234;6.754;2022-11-04T05:04:42;99949.84;;;9.54;87.57
28004;BME280;15330;51.234;6.754;2022-11-04T05:07:08;99949.00;;;9.53;87.16
28004;BME280;15330;51.234;6.754;2022-11-04T05:09:34;99945.53;;;9.45;87.66
28004;BME280;15330;51.234;6.754;2022-11-04T05:12:00;99943.00;;;9.51;87.26
28004;BME280;15330;51.234;6.754;2022-11-04T05:14:25;99943.41;;;9.86;87.65
28004;BME280;15330;51.234;6.754;2022-11-04T05:16:50;99935.88;;;9.67;86.69
28004;BME280;15330;51.234;6.754;2022-11-04T05:19:16;99942.34;;;9.49;87.17
28004;BME280;15330;51.234;6.754;2022-11-04T05:21:41;99950.13;;;9.59;86.78
28004;BME280;15330;51.234;6.754;2022-11-04T05:24:07;99956.78;;;9.63;86.99
28004;BME280;15330;51.234;6.754;2022-11-04T05:26:32;99952.31;;;9.55;87.05
28004;BME280;15330;51.234;6.754;2022-11-04T05:28:57;99946.75;;;9.65;86.68
28004;BME280;15330;51.234;6.754;2022-11-04T05:31:23;99949.22;;;9.67;86.63
28004;BME280;15330;51.234;6.754;2022-11-04T05:33:48;99958.19;;;9.51;87.24
28004;BME280;15330;51.234;6.754;2022-11-04T05:36:15;99955.56;;;9.66;87.07
28004;BME280;15330;51.234;6.754;2022-11-04T05:38:41;99963.47;;;9.59;86.75
28004;BME280;15330;51.234;6.754;2022-11-04T05:41:09;99962.69;;;9.50;86.81
28004;BME280;15330;51.234;6.754;2022-11-04T05:43:35;99958.47;;;9.33;86.84
28004;BME280;15330;51.234;6.754;2022-11-04T05:46:00;99965.06;;;9.45;87.36
28004;BME280;15330;51.234;6.754;2022-11-04T05:48:26;99963.03;;;9.47;86.90
28004;BME280;15330;51.234;6.754;2022-11-04T05:50:53;99962.44;;;9.37;87.57
28004;BME280;15330;51.234;6.754;2022-11-04T05:53:18;99964.72;;;9.48;87.07
28004;BME280;15330;51.234;6.754;2022-11-04T05:55:44;99963.94;;;9.40;87.51
28004;BME280;15330;51.234;6.754;2022-11-04T05:58:09;99959.72;;;9.45;87.28
28004;BME280;15330;51.234;6.754;2022-11-04T06:00:35;99960.75;;;9.44;87.15
28004;BME280;15330;51.234;6.754;2022-11-04T06:03:00;99964.66;;;9.56;88.02
28004;BME280;15330;51.234;6.754;2022-11-04T06:05:26;99967.91;;;9.89;86.98
28004;BME280;15330;51.234;6.754;2022-11-04T06:07:52;99972.06;;;9.69;85.20
28004;BME280;15330;51.234;6.754;2022-11-04T06:10:18;99979.97;;;9.63;86.55
28004;BME280;15330;51.234;6.754;2022-11-04T06:12:43;99981.84;;;9.31;86.95
28004;BME280;15330;51.234;6.754;2022-11-04T06:15:09;99981.94;;;9.07;88.54
28004;BME280;15330;51.234;6.754;2022-11-04T06:17:34;99990.00;;;9.30;87.52
28004;BME280;15330;51.234;6.754;2022-11-04T06:20:00;99991.72;;;9.23;88.04
28004;BME280;15330;51.234;6.754;2022-11-04T06:22:25;99991.84;;;9.29;88.12
28004;BME280;15330;51.234;6.754;2022-11-04T06:24:50;99991.84;;;9.29;87.39
28004;BME280;15330;51.234;6.754;2022-11-04T06:27:16;100004.38;;;9.29;87.52
28004;BME280;15330;51.234;6.754;2022-11-04T06:29:41;100005.97;;;9.07;87.74
28004;BME280;15330;51.234;6.754;2022-11-04T06:32:15;100018.22;;;9.24;87.49
28004;BME280;15330;51.234;6.754;2022-11-04T06:34:41;100019.00;;;8.94;88.62
28004;BME280;15330;51.234;6.754;2022-11-04T06:37:06;100024.34;;;8.94;88.64
28004;BME280;15330;51.234;6.754;2022-11-04T06:39:32;100017.84;;;8.96;88.72
28004;BME280;15330;51.234;6.754;2022-11-04T06:41:57;100020.03;;;8.93;88.89
28004;BME280;15330;51.234;6.754;2022-11-04T06:44:23;100025.59;;;9.22;88.37
28004;BME280;15330;51.234;6.754;2022-11-04T06:46:48;100032.53;;;9.31;88.02
28004;BME280;15330;51.234;6.754;2022-11-04T06:49:19;100029.34;;;9.67;87.98
28004;BME280;15330;51.234;6.754;2022-11-04T06:51:46;100035.56;;;9.59;87.36
28004;BME280;15330;51.234;6.754;2022-11-04T06:54:12;100037.75;;;9.55;86.69
28004;BME280;15330;51.234;6.754;2022-11-04T06:56:38;100027.03;;;9.64;86.46
28004;BME280;15330;51.234;6.754;2022-11-04T06:59:04;100040.84;;;9.67;86.75
28004;BME280;15330;51.234;6.754;2022-11-04T07:01:32;100029.38;;;9.58;86.33
28004;BME280;15330;51.234;6.754;2022-11-04T07:03:59;100037.72;;;9.64;86.18
28004;BME280;15330;51.234;6.754;2022-11-04T07:06:26;100032.28;;;9.49;86.39
28004;BME280;15330;51.234;6.754;2022-11-04T07:08:55;100035.72;;;9.57;86.62
28004;BME280;15330;51.234;6.754;2022-11-04T07:11:21;100041.63;;;9.99;84.63
28004;BME280;15330;51.234;6.754;2022-11-04T07:13:48;100049.91;;;9.58;86.32
28004;BME280;15330;51.234;6.754;2022-11-04T07:16:14;100054.53;;;9.72;86.19
28004;BME280;15330;51.234;6.754;2022-11-04T07:18:40;100055.16;;;9.97;85.61
28004;BME280;15330;51.234;6.754;2022-11-04T07:21:06;100053.66;;;10.03;85.60
28004;BME280;15330;51.234;6.754;2022-11-04T07:23:32;100059.72;;;10.19;85.10
28004;BME280;15330;51.234;6.754;2022-11-04T07:26:01;100048.63;;;9.77;85.02
28004;BME280;15330;51.234;6.754;2022-11-04T07:28:27;100058.47;;;9.76;85.38
28004;BME280;15330;51.234;6.754;2022-11-04T07:31:00;100059.38;;;9.69;86.28
28004;BME280;15330;51.234;6.754;2022-11-04T07:33:26;100063.81;;;9.53;86.96
28004;BME280;15330;51.234;6.754;2022-11-04T07:35:52;100073.53;;;9.38;87.62
28004;BME280;15330;51.234;6.754;2022-11-04T07:38:19;100082.72;;;9.44;87.43
28004;BME280;15330;51.234;6.754;2022-11-04T07:40:45;100084.38;;;9.37;87.68
28004;BME280;15330;51.234;6.754;2022-11-04T07:43:10;100084.19;;;9.46;87.74
28004;BME280;15330;51.234;6.754;2022-11-04T07:45:35;100083.84;;;9.80;87.08
28004;BME280;15330;51.234;6.754;2022-11-04T07:48:01;100095.81;;;9.62;87.03
28004;BME280;15330;51.234;6.754;2022-11-04T07:50:26;100101.75;;;9.72;86.67
28004;BME280;15330;51.234;6.754;2022-11-04T07:52:52;100095.31;;;9.58;86.80
28004;BME280;15330;51.234;6.754;2022-11-04T07:55:18;100110.78;;;9.71;87.26
28004;BME280;15330;51.234;6.754;2022-11-04T07:57:44;100115.34;;;9.93;86.96
28004;BME280;15330;51.234;6.754;2022-11-04T08:00:10;100123.75;;;9.82;87.09
28004;BME280;15330;51.234;6.754;2022-11-04T08:02:36;100123.25;;;9.78;87.21
28004;BME280;15330;51.234;6.754;2022-11-04T08:05:01;100126.13;;;9.69;87.40
28004;BME280;15330;51.234;6.754;2022-11-04T08:07:26;100126.97;;;9.69;87.39
28004;BME280;15330;51.234;6.754;2022-11-04T08:09:52;100121.91;;;9.82;86.88
28004;BME280;15330;51.234;6.754;2022-11-04T08:12:17;100132.53;;;9.90;86.72
28004;BME280;15330;51.234;6.754;2022-11-04T08:14:44;100136.84;;;9.61;88.22
28004;BME280;15330;51.234;6.754;2022-11-04T08:17:10;100136.09;;;9.44;90.37
28004;BME280;15330;51.234;6.754;2022-11-04T08:19:35;100136.72;;;9.54;90.82
28004;BME280;15330;51.234;6.754;2022-11-04T08:22:01;100140.13;;;9.32;92.51
28004;BME280;15330;51.234;6.754;2022-11-04T08:24:26;100137.09;;;9.43;93.00
28004;BME280;15330;51.234;6.754;2022-11-04T08:26:51;100128.06;;;9.52;93.06
28004;BME280;15330;51.234;6.754;2022-11-04T08:29:17;100121.91;;;9.43;92.64
28004;BME280;15330;51.234;6.754;2022-11-04T08:31:42;100127.13;;;9.76;93.25
28004;BME280;15330;51.234;6.754;2022-11-04T08:34:08;100131.81;;;9.66;93.01
28004;BME280;15330;51.234;6.754;2022-11-04T08:36:36;100136.38;;;9.88;93.22
28004;BME280;15330;51.234;6.754;2022-11-04T08:39:04;100127.91;;;9.84;92.53
28004;BME280;15330;51.234;6.754;2022-11-04T08:41:31;100138.16;;;10.04;92.58
28004;BME280;15330;51.234;6.754;2022-11-04T08:43:58;100130.34;;;9.63;93.09
28004;BME280;15330;51.234;6.754;2022-11-04T08:46:26;100140.09;;;9.79;93.57
28004;BME280;15330;51.234;6.754;2022-11-04T08:48:52;100144.00;;;9.99;92.70
28004;BME280;15330;51.234;6.754;2022-11-04T08:51:20;100144.88;;;9.91;93.15
28004;BME280;15330;51.234;6.754;2022-11-04T08:53:47;100140.81;;;9.73;92.99
28004;BME280;15330;51.234;6.754;2022-11-04T08:56:18;100134.81;;;10.02;92.95
28004;BME280;15330;51.234;6.754;2022-11-04T08:58:45;100139.72;;;9.90;92.45
28004;BME280;15330;51.234;6.754;2022-11-04T09:01:10;100138.56;;;10.15;92.70
28004;BME280;15330;51.234;6.754;2022-11-04T09:03:37;100139.97;;;10.34;90.64
28004;BME280;15330;51.234;6.754;2022-11-04T09:06:06;100141.69;;;10.50;90.37
28004;BME280;15330;51.234;6.754;2022-11-04T09:08:32;100151.97;;;10.07;90.90
28004;BME280;15330;51.234;6.754;2022-11-04T09:10:57;100160.47;;;10.11;91.50
28004;BME280;15330;51.234;6.754;2022-11-04T09:13:23;100157.06;;;9.94;91.99
28004;BME280;15330;51.234;6.754;2022-11-04T09:15:48;100153.75;;;10.23;91.53
28004;BME280;15330;51.234;6.754;2022-11-04T09:18:14;100156.59;;;10.21;91.48
28004;BME280;15330;51.234;6.754;2022-11-04T09:20:40;100157.47;;;10.14;90.58
28004;BME280;15330;51.234;6.754;2022-11-04T09:23:09;100157.13;;;10.17;90.94
28004;BME280;15330;51.234;6.754;2022-11-04T09:25:34;100159.47;;;10.43;90.19
28004;BME280;15330;51.234;6.754;2022-11-04T09:28:00;100159.34;;;10.59;89.37
28004;BME280;15330;51.234;6.754;2022-11-04T09:30:26;100163.31;;;10.40;89.42
28004;BME280;15330;51.234;6.754;2022-11-04T09:32:51;100166.88;;;10.78;89.44
28004;BME280;15330;51.234;6.754;2022-11-04T09:35:17;100164.22;;;10.78;88.88
28004;BME280;15330;51.234;6.754;2022-11-04T09:37:43;100146.00;;;11.85;84.82
28004;BME280;15330;51.234;6.754;2022-11-04T09:40:20;100131.63;;;15.73;72.95
28004;BME280;15330;51.234;6.754;2022-11-04T09:45:39;100126.50;;;19.09;57.78
28004;BME280;15330;51.234;6.754;2022-11-04T09:48:09;100116.94;;;21.93;48.68
28004;BME280;15330;51.234;6.754;2022-11-04T09:50:50;100132.06;;;15.70;66.76
28004;BME280;15330;51.234;6.754;2022-11-04T09:53:46;100147.06;;;13.87;73.65
28004;BME280;15330;51.234;6.754;2022-11-04T09:56:21;100150.44;;;12.99;77.80
28004;BME280;15330;51.234;6.754;2022-11-04T09:58:48;100159.94;;;11.95;81.53
28004;BME280;15330;51.234;6.754;2022-11-04T10:17:49;100157.59;;;17.32;62.89
28004;BME280;15330;51.234;6.754;2022-11-04T10:23:21;100151.06;;;23.93;44.63
28004;BME280;15330;51.234;6.754;2022-11-04T10:25:58;100158.53;;;22.32;44.89
28004;BME280;15330;51.234;6.754;2022-11-04T10:28:37;100156.09;;;23.22;43.83
28004;BME280;15330;51.234;6.754;2022-11-04T10:31:05;100157.84;;;23.38;44.16
28004;BME280;15330;51.234;6.754;2022-11-04T10:33:34;100160.38;;;22.54;45.90
28004;BME280;15330;51.234;6.754;2022-11-04T10:36:06;100167.25;;;24.20;42.82
28004;BME280;15330;51.234;6.754;2022-11-04T10:41:00;100171.97;;;21.18;49.19
28004;BME280;15330;51.234;6.754;2022-11-04T10:43:35;100166.91;;;19.33;55.30
28004;BME280;15330;51.234;6.754;2022-11-04T10:46:08;100172.88;;;16.95;59.39
28004;BME280;15330;51.234;6.754;2022-11-04T10:51:36;100163.91;;;21.84;47.46
28004;BME280;15330;51.234;6.754;2022-11-04T10:54:06;100167.84;;;21.33;47.74
28004;BME280;15330;51.234;6.754;2022-11-04T10:56:42;100182.78;;;18.83;55.25
28004;BME280;15330;51.234;6.754;2022-11-04T10:59:21;100187.78;;;17.72;58.82
28004;BME280;15330;51.234;6.754;2022-11-04T11:01:56;100196.50;;;17.31;61.64
28004;BME280;15330;51.234;6.754;2022-11-04T11:04:31;100188.47;;;16.93;62.36
28004;BME280;15330;51.234;6.754;2022-11-04T11:07:03;100203.75;;;17.05;61.49
28004;BME280;15330;51.234;6.754;2022-11-04T11:09:33;100201.31;;;16.72;63.63
28004;BME280;15330;51.234;6.754;2022-11-04T11:12:02;100208.81;;;14.69;68.65
28004;BME280;15330;51.234;6.754;2022-11-04T11:14:33;100203.66;;;15.14;67.73
28004;BME280;15330;51.234;6.754;2022-11-04T11:19:56;100205.09;;;14.16;69.46
28004;BME280;15330;51.234;6.754;2022-11-04T11:22:33;100211.75;;;14.94;68.03
28004;BME280;15330;51.234;6.754;2022-11-04T11:28:05;100225.34;;;13.71;71.36
28004;BME280;15330;51.234;6.754;2022-11-04T11:35:51;100228.47;;;14.15;73.22
28004;BME280;15330;51.234;6.754;2022-11-04T11:38:27;100232.91;;;13.88;74.27
28004;BME280;15330;51.234;6.754;2022-11-04T11:41:13;100237.13;;;14.04;75.19
28004;BME280;15330;51.234;6.754;2022-11-04T11:43:45;100242.31;;;14.12;76.45
28004;BME280;15330;51.234;6.754;2022-11-04T11:46:20;100250.63;;;13.76;78.49
28004;BME280;15330;51.234;6.754;2022-11-04T11:48:51;100255.63;;;13.79;79.38
28004;BME280;15330;51.234;6.754;2022-11-04T11:51:32;100249.97;;;13.68;80.54
28004;BME280;15330;51.234;6.754;2022-11-04T11:56:35;100256.13;;;13.34;81.41
28004;BME280;15330;51.234;6.754;2022-11-04T12:04:31;100263.03;;;13.21;82.01
28004;BME280;15330;51.234;6.754;2022-11-04T12:12:07;100250.53;;;12.71;81.91
28004;BME280;15330;51.234;6.754;2022-11-04T12:20:06;100264.53;;;12.67;84.58
28004;BME280;15330;51.234;6.754;2022-11-04T12:22:49;100271.69;;;12.09;85.70
28004;BME280;15330;51.234;6.754;2022-11-04T12:25:25;100263.63;;;12.24;86.08
28004;BME280;15330;51.234;6.754;2022-11-04T12:28:05;100263.38;;;12.04;86.29
28004;BME280;15330;51.234;6.754;2022-11-04T12:41:30;100244.88;;;11.80;87.43
28004;BME280;15330;51.234;6.754;2022-11-04T12:44:07;100243.59;;;11.75;87.24
28004;BME280;15330;51.234;6.754;2022-11-04T12:47:02;100247.91;;;12.06;87.02
28004;BME280;15330;51.234;6.754;2022-11-04T12:49:41;100252.06;;;12.59;85.26
28004;BME280;15330;51.234;6.754;2022-11-04T12:55:31;100252.47;;;13.20;81.91
28004;BME280;15330;51.234;6.754;2022-11-04T13:00:40;100259.59;;;13.55;81.75
28004;BME280;15330;51.234;6.754;2022-11-04T13:03:15;100258.44;;;13.71;81.16
28004;BME280;15330;51.234;6.754;2022-11-04T13:06:22;100257.31;;;13.87;79.93
28004;BME280;15330;51.234;6.754;2022-11-04T13:08:55;100252.56;;;14.30;79.06
28004;BME280;15330;51.234;6.754;2022-11-04T13:11:27;100265.94;;;14.64;78.19
28004;BME280;15330;51.234;6.754;2022-11-04T13:14:05;100257.66;;;14.59;78.09
28004;BME280;15330;51.234;6.754;2022-11-04T13:16:39;100266.03;;;15.04;77.25
28004;BME280;15330;51.234;6.754;2022-11-04T13:19:28;100270.13;;;14.80;76.68
28004;BME280;15330;51.234;6.754;2022-11-04T13:22:00;100271.22;;;15.19;76.26
28004;BME280;15330;51.234;6.754;2022-11-04T13:24:29;100278.06;;;15.21;74.61
28004;BME280;15330;51.234;6.754;2022-11-04T13:27:03;100281.94;;;14.73;75.07
28004;BME280;15330;51.234;6.754;2022-11-04T13:29:30;100287.56;;;14.84;75.59
28004;BME280;15330;51.234;6.754;2022-11-04T13:32:20;100296.75;;;14.49;75.63
28004;BME280;15330;51.234;6.754;2022-11-04T13:35:08;100292.50;;;14.33;75.85
28004;BME280;15330;51.234;6.754;2022-11-04T13:37:46;100296.50;;;14.44;76.52
28004;BME280;15330;51.234;6.754;2022-11-04T13:40:21;100297.13;;;14.46;78.06
28004;BME280;15330;51.234;6.754;2022-11-04T13:42:57;100304.31;;;14.32;78.61
28004;BME280;15330;51.234;6.754;2022-11-04T13:45:51;100306.69;;;14.48;77.90
28004;BME280;15330;51.234;6.754;2022-11-04T13:48:27;100301.34;;;14.61;77.16
28004;BME280;15330;51.234;6.754;2022-11-04T13:51:14;100309.97;;;14.09;76.88
28004;BME280;15330;51.234;6.754;2022-11-04T13:53:40;100314.63;;;14.28;77.39
28004;BME280;15330;51.234;6.754;2022-11-04T13:56:07;100303.88;;;14.28;77.38
28004;BME280;15330;51.234;6.754;2022-11-04T13:58:32;100319.34;;;14.20;77.92
28004;BME280;15330;51.234;6.754;2022-11-04T14:03:51;100321.28;;;13.98;78.86
28004;BME280;15330;51.234;6.754;2022-11-04T14:06:50;100334.13;;;14.03;78.75
28004;BME280;15330;51.234;6.754;2022-11-04T14:14:38;100336.59;;;14.32;77.83
28004;BME280;15330;51.234;6.754;2022-11-04T14:22:46;100358.81;;;14.13;77.90
28004;BME280;15330;51.234;6.754;2022-11-04T14:27:46;100363.91;;;13.73;77.90
28004;BME280;15330;51.234;6.754;2022-11-04T14:30:36;100363.22;;;13.65;79.23
28004;BME280;15330;51.234;6.754;2022-11-04T14:33:17;100364.72;;;13.46;78.53
28004;BME280;15330;51.234;6.754;2022-11-04T14:35:44;100367.59;;;13.44;79.79
28004;BME280;15330;51.234;6.754;2022-11-04T14:38:29;100370.91;;;13.25;79.26
28004;BME280;15330;51.234;6.754;2022-11-04T14:44:00;100369.06;;;13.11;80.26
28004;BME280;15330;51.234;6.754;2022-11-04T14:46:29;100375.53;;;12.95;80.35
28004;BME280;15330;51.234;6.754;2022-11-04T14:48:57;100378.88;;;12.82;79.76
28004;BME280;15330;51.234;6.754;2022-11-04T14:51:29;100387.13;;;12.81;79.69
28004;BME280;15330;51.234;6.754;2022-11-04T14:54:03;100387.47;;;12.93;78.79
28004;BME280;15330;51.234;6.754;2022-11-04T14:56:30;100398.88;;;12.80;78.80
28004;BME280;15330;51.234;6.754;2022-11-04T15:01:29;100398.16;;;12.71;77.87
28004;BME280;15330;51.234;6.754;2022-11-04T15:04:02;100408.41;;;12.82;78.88
28004;BME280;15330;51.234;6.754;2022-11-04T15:06:29;100410.00;;;12.62;78.70
28004;BME280;15330;51.234;6.754;2022-11-04T15:08:55;100420.53;;;12.78;79.42
28004;BME280;15330;51.234;6.754;2022-11-04T15:11:43;100423.50;;;12.69;79.77
28004;BME280;15330;51.234;6.754;2022-11-04T15:14:27;100419.91;;;12.62;80.02
28004;BME280;15330;51.234;6.754;2022-11-04T15:16:55;100428.44;;;12.65;80.38
28004;BME280;15330;51.234;6.754;2022-11-04T15:19:31;100436.09;;;12.54;80.96
28004;BME280;15330;51.234;6.754;2022-11-04T15:22:02;100442.81;;;12.20;80.86
28004;BME280;15330;51.234;6.754;2022-11-04T15:24:28;100448.53;;;12.17;81.50
28004;BME280;15330;51.234;6.754;2022-11-04T15:26:59;100455.56;;;12.18;81.79
28004;BME280;15330;51.234;6.754;2022-11-04T15:29:26;100452.94;;;12.33;82.09
28004;BME280;15330;51.234;6.754;2022-11-04T15:32:00;100462.47;;;12.35;81.51